Time;durP1;ratioP1;P1;durP2;ratioP2;P2;SDS_P1;SDS_P2;PMS_P1;PMS_P2;Temp;Humidity;BMP_temperature;BMP_pressure;BME280_temperature;BME280_humidity;BME280_pressure;Samples;Min_cycle;Max_cycle;Signal;HPM_P1;HPM_P2
2022/06/12 00:01:23;;;;;;;7.00;5.07;;;18.60;99.90;;;;;;5088856;28;20247;-51
2022/06/12 00:03:52;;;;;;;5.80;5.30;;;18.60;99.90;;;;;;5074740;28;20208;-51
2022/06/12 00:06:22;;;;;;;8.07;6.07;;;18.60;99.90;;;;;;5089826;28;20270;-51
2022/06/12 00:08:51;;;;;;;7.70;5.93;;;18.60;99.90;;;;;;5087112;28;20215;-51
2022/06/12 00:11:24;;;;;;;7.95;6.07;;;18.60;99.90;;;;;;5089684;28;20219;-50
2022/06/12 00:13:55;;;;;;;6.88;6.13;;;18.50;99.90;;;;;;5088644;28;20211;-51
2022/06/12 00:16:23;;;;;;;8.10;6.25;;;18.40;99.90;;;;;;5089312;28;20256;-51
2022/06/12 00:18:52;;;;;;;7.05;6.32;;;18.50;99.90;;;;;;5089145;28;20208;-51
2022/06/12 00:21:21;;;;;;;7.38;5.88;;;18.40;99.90;;;;;;5089976;28;20258;-51
2022/06/12 00:23:53;;;;;;;7.75;5.70;;;18.30;99.90;;;;;;5088726;28;20205;-51
2022/06/12 00:26:25;;;;;;;5.78;5.15;;;18.30;99.90;;;;;;5088985;28;20220;-51
2022/06/12 00:28:58;;;;;;;5.68;5.18;;;18.20;99.90;;;;;;5088269;28;20236;-51
2022/06/12 00:31:27;;;;;;;6.55;5.22;;;18.10;99.90;;;;;;5108947;28;20207;-51
2022/06/12 00:33:55;;;;;;;5.72;5.22;;;18.10;99.90;;;;;;5109434;28;20215;-51
2022/06/12 00:36:23;;;;;;;6.80;5.20;;;18.00;99.90;;;;;;5109180;28;20254;-51
2022/06/12 00:38:53;;;;;;;6.85;5.47;;;18.00;99.90;;;;;;5109580;28;20268;-51
2022/06/12 00:41:21;;;;;;;5.60;5.10;;;18.00;99.90;;;;;;5109237;28;20209;-51
2022/06/12 00:43:49;;;;;;;7.03;5.47;;;18.00;99.90;;;;;;5108560;28;20208;-51
2022/06/12 00:46:46;;;;;;;6.68;5.32;;;18.00;99.90;;;;;;5106310;28;20227;-51
2022/06/12 00:49:18;;;;;;;7.45;5.80;;;18.10;99.90;;;;;;5095634;28;20218;-51
2022/06/12 00:51:50;;;;;;;6.43;5.82;;;18.10;99.90;;;;;;5080922;28;20249;-51
2022/06/12 00:54:20;;;;;;;5.88;5.28;;;18.10;99.90;;;;;;5113154;28;20919;-51
2022/06/12 00:56:52;;;;;;;7.00;5.82;;;18.20;99.90;;;;;;5107452;28;20278;-51
2022/06/12 00:59:32;;;;;;;6.10;5.53;;;18.20;99.90;;;;;;5105252;28;20660;-51
2022/06/12 01:02:01;;;;;;;6.55;5.93;;;18.10;99.90;;;;;;5113074;28;20396;-51
2022/06/12 01:07:19;;;;;;;6.03;5.43;;;18.10;99.90;;;;;;5112649;28;20695;-51
2022/06/12 01:09:51;;;;;;;7.00;5.28;;;18.10;99.90;;;;;;5112355;28;20211;-51
2022/06/12 01:12:23;;;;;;;7.40;5.53;;;18.00;99.90;;;;;;5113201;28;20229;-51
2022/06/12 01:14:58;;;;;;;5.30;4.88;;;18.00;99.90;;;;;;5113248;28;20204;-50
2022/06/12 01:17:28;;;;;;;5.30;4.80;;;17.90;99.90;;;;;;5112964;28;20770;-51
2022/06/12 01:19:58;;;;;;;6.18;4.32;;;17.80;99.90;;;;;;5113088;28;20250;-51
2022/06/12 01:22:58;;;;;;;4.80;4.25;;;17.80;99.90;;;;;;5098230;28;20216;-51
2022/06/12 01:26:25;;;;;;;5.82;4.43;;;17.70;99.90;;;;;;5112445;28;20289;-52
2022/06/12 01:28:59;;;;;;;6.30;4.10;;;17.60;99.90;;;;;;5112903;28;20272;-51
2022/06/12 01:31:39;;;;;;;5.72;4.13;;;17.50;99.90;;;;;;5112427;28;20239;-51
2022/06/12 01:34:19;;;;;;;5.65;4.20;;;17.50;99.90;;;;;;5112913;28;20245;-51
2022/06/12 01:36:55;;;;;;;5.22;4.15;;;17.50;99.90;;;;;;5112486;28;20285;-51
2022/06/12 01:39:36;;;;;;;6.30;4.00;;;17.50;99.90;;;;;;5112456;28;20196;-51
2022/06/12 01:42:15;;;;;;;6.00;3.97;;;17.50;99.90;;;;;;5112400;28;20239;-51
2022/06/12 01:44:51;;;;;;;4.55;4.00;;;17.50;99.90;;;;;;5110710;28;20626;-51
2022/06/12 01:47:27;;;;;;;6.53;4.28;;;17.50;99.90;;;;;;5107398;28;20770;-51
2022/06/12 01:50:06;;;;;;;5.45;4.45;;;17.40;99.90;;;;;;5086938;28;20207;-51
2022/06/12 01:52:46;;;;;;;5.97;4.38;;;17.30;99.90;;;;;;5111847;28;20260;-51
2022/06/12 01:55:19;;;;;;;5.07;4.10;;;17.20;99.90;;;;;;5119827;28;20200;-51
2022/06/12 01:57:55;;;;;;;5.35;4.43;;;17.20;99.90;;;;;;5120017;28;20230;-50
2022/06/12 02:00:27;;;;;;;6.85;3.72;;;17.20;99.90;;;;;;5115002;28;20227;-51
2022/06/12 02:03:01;;;;;;;4.63;3.83;;;17.20;99.90;;;;;;5111768;28;20208;-51
2022/06/12 02:05:38;;;;;;;4.43;3.83;;;17.00;99.90;;;;;;5111501;28;20230;-51
2022/06/12 02:08:12;;;;;;;5.65;4.15;;;17.00;99.90;;;;;;5100786;28;20199;-51
2022/06/12 02:10:45;;;;;;;4.88;3.75;;;17.00;99.90;;;;;;5101706;28;20245;-51
2022/06/12 02:13:18;;;;;;;5.35;3.80;;;16.90;99.90;;;;;;5108843;28;20229;-51
2022/06/12 02:15:54;;;;;;;5.28;3.70;;;16.90;99.90;;;;;;5112144;28;20227;-51
2022/06/12 02:18:29;;;;;;;5.05;3.50;;;16.90;99.90;;;;;;5111794;28;20284;-51
2022/06/12 02:21:04;;;;;;;5.65;3.97;;;16.90;99.90;;;;;;5112212;28;20485;-51
2022/06/12 02:23:37;;;;;;;6.40;4.10;;;16.90;99.90;;;;;;5094788;28;20199;-51
2022/06/12 02:26:06;;;;;;;6.40;4.15;;;16.90;99.90;;;;;;5100838;28;20224;-51
2022/06/12 02:28:39;;;;;;;4.97;4.25;;;16.90;99.90;;;;;;5093398;28;20288;-51
2022/06/12 02:31:13;;;;;;;5.25;3.90;;;16.80;99.90;;;;;;5112000;28;20208;-51
2022/06/12 02:33:44;;;;;;;7.13;3.75;;;16.80;99.90;;;;;;5110459;28;20204;-51
2022/06/12 02:36:19;;;;;;;4.45;3.53;;;16.70;99.90;;;;;;5111613;28;20293;-51
2022/06/12 02:38:51;;;;;;;6.28;3.47;;;16.70;99.90;;;;;;5110761;28;20260;-51
2022/06/12 02:41:25;;;;;;;6.53;3.58;;;16.60;99.90;;;;;;5111702;28;20231;-51
2022/06/12 02:43:57;;;;;;;4.72;3.72;;;16.70;99.90;;;;;;5110906;28;20242;-51
2022/06/12 02:46:34;;;;;;;7.28;3.67;;;16.60;99.90;;;;;;5110579;28;20704;-51
2022/06/12 02:49:02;;;;;;;5.50;3.47;;;16.70;99.90;;;;;;5105656;28;20234;-51
2022/06/12 02:51:37;;;;;;;7.47;3.80;;;16.70;99.90;;;;;;5111163;28;20253;-50
2022/06/12 02:54:15;;;;;;;7.00;3.53;;;16.70;99.90;;;;;;5111031;28;20199;-51
2022/06/12 02:56:54;;;;;;;6.80;3.78;;;16.70;99.90;;;;;;5103970;28;20224;-51
2022/06/12 02:59:31;;;;;;;4.88;3.60;;;16.70;99.90;;;;;;5106103;28;20207;-50
2022/06/12 03:02:07;;;;;;;9.15;3.88;;;16.70;99.90;;;;;;5110256;28;20649;-51
2022/06/12 03:04:43;;;;;;;4.65;3.30;;;16.70;99.90;;;;;;5111110;28;20585;-51
2022/06/12 03:07:11;;;;;;;6.93;3.50;;;16.60;99.90;;;;;;5103592;28;20688;-50
2022/06/12 03:09:40;;;;;;;8.23;4.00;;;16.60;99.90;;;;;;5105825;28;20253;-50
2022/06/12 03:12:09;;;;;;;7.53;4.20;;;16.60;99.90;;;;;;5110878;28;20918;-51
2022/06/12 03:14:37;;;;;;;8.55;4.30;;;16.50;99.90;;;;;;5110073;28;20768;-50
2022/06/12 03:17:07;;;;;;;7.95;4.10;;;16.50;99.90;;;;;;5110186;28;20272;-51
2022/06/12 03:19:42;;;;;;;5.18;3.55;;;16.40;99.90;;;;;;5111016;28;20243;-50
2022/06/12 03:22:17;;;;;;;6.05;3.63;;;16.30;99.90;;;;;;5103108;28;20249;-50
2022/06/12 03:25:06;;;;;;;8.00;3.92;;;16.30;99.90;;;;;;5104300;28;20272;-50
2022/06/12 03:27:53;;;;;;;6.78;3.90;;;16.30;99.90;;;;;;5088323;28;20199;-50
2022/06/12 03:30:30;;;;;;;7.50;3.78;;;16.20;99.90;;;;;;5110045;28;20203;-51
2022/06/12 03:33:09;;;;;;;7.30;3.60;;;16.10;99.90;;;;;;5109141;28;20672;-51
2022/06/12 03:35:45;;;;;;;8.02;3.92;;;16.10;99.90;;;;;;5109800;28;20247;-51
2022/06/12 03:38:22;;;;;;;8.93;3.58;;;16.10;99.90;;;;;;5109994;28;20219;-51
2022/06/12 03:40:57;;;;;;;5.22;3.50;;;16.00;99.90;;;;;;5110313;28;20237;-50
2022/06/12 03:43:33;;;;;;;6.25;3.28;;;16.00;99.90;;;;;;5100522;28;20250;-51
2022/06/12 03:46:10;;;;;;;8.68;3.95;;;16.00;99.90;;;;;;5106911;28;20302;-51
2022/06/12 03:48:48;;;;;;;6.38;3.58;;;16.00;99.90;;;;;;5105410;28;20213;-51
2022/06/12 03:51:23;;;;;;;5.63;3.53;;;16.00;99.90;;;;;;5109898;28;20892;-50
2022/06/12 03:53:58;;;;;;;6.32;3.25;;;16.00;99.90;;;;;;5109981;28;20206;-51
2022/06/12 03:59:24;;;;;;;6.10;3.15;;;16.00;99.90;;;;;;5099209;28;20220;-50
2022/06/12 04:01:52;;;;;;;8.07;3.83;;;16.00;99.90;;;;;;5100015;28;20770;-50
2022/06/12 04:04:25;;;;;;;5.85;3.15;;;16.10;99.90;;;;;;5110366;28;20203;-50
2022/06/12 04:06:56;;;;;;;6.40;3.28;;;16.10;99.90;;;;;;5096579;28;20223;-51
2022/06/12 04:09:27;;;;;;;7.05;3.67;;;16.10;99.90;;;;;;5095829;28;20725;-50
2022/06/12 04:12:05;;;;;;;5.15;3.15;;;16.30;99.90;;;;;;5095871;28;20235;-51
2022/06/12 04:14:38;;;;;;;5.40;3.15;;;17.30;99.90;;;;;;5109541;28;20211;-51
2022/06/12 04:17:06;;;;;;;6.47;3.42;;;18.10;99.90;;;;;;5109695;28;20281;-51
2022/06/12 04:19:58;;;;;;;4.38;3.03;;;18.90;99.90;;;;;;5109724;28;20207;-51
2022/06/12 04:22:33;;;;;;;9.35;3.15;;;19.40;99.90;;;;;;5106970;28;20684;-51
2022/06/12 04:25:08;;;;;;;5.28;2.83;;;19.90;99.90;;;;;;5109120;28;20732;-51
2022/06/12 04:27:41;;;;;;;6.78;2.90;;;20.40;99.90;;;;;;5111712;28;20781;-51
2022/06/12 04:30:18;;;;;;;8.05;3.08;;;20.70;99.90;;;;;;5098831;28;20631;-50
2022/06/12 04:32:47;;;;;;;5.07;2.78;;;21.20;99.90;;;;;;5113715;28;20272;-51
2022/06/12 04:35:17;;;;;;;6.55;2.78;;;21.50;99.90;;;;;;5113411;28;20211;-51
2022/06/12 04:37:45;;;;;;;4.43;2.45;;;21.80;99.90;;;;;;5112631;28;20368;-51
2022/06/12 04:40:23;;;;;;;4.80;2.80;;;22.20;99.90;;;;;;5113652;28;20572;-51
2022/06/12 04:42:53;;;;;;;5.72;3.08;;;22.30;99.90;;;;;;5113351;28;20206;-50
2022/06/12 04:45:21;;;;;;;7.13;2.95;;;22.70;99.90;;;;;;5113974;28;20238;-50
2022/06/12 04:47:49;;;;;;;5.25;3.10;;;23.10;99.90;;;;;;5108045;28;20210;-51
2022/06/12 04:50:19;;;;;;;6.13;2.70;;;23.40;99.90;;;;;;5102446;28;20212;-51
2022/06/12 04:52:47;;;;;;;4.45;2.67;;;23.50;99.90;;;;;;5106509;28;21241;-51
2022/06/12 04:55:15;;;;;;;5.45;2.60;;;23.40;99.90;;;;;;5101968;28;20207;-51
2022/06/12 04:57:43;;;;;;;4.47;2.30;;;23.60;99.90;;;;;;5113193;28;20254;-52
2022/06/12 05:00:13;;;;;;;5.15;2.55;;;23.80;99.90;;;;;;5100427;28;20212;-51
2022/06/12 05:02:41;;;;;;;5.63;2.83;;;24.10;99.90;;;;;;5106497;28;20725;-51
2022/06/12 05:05:09;;;;;;;5.88;2.50;;;24.40;99.90;;;;;;5113321;28;20419;-51
2022/06/12 05:07:39;;;;;;;4.28;2.28;;;24.60;99.90;;;;;;5112950;28;20284;-52
2022/06/12 05:10:08;;;;;;;6.47;3.15;;;25.00;99.90;;;;;;5113028;28;20239;-51
2022/06/12 05:12:36;;;;;;;5.82;2.80;;;25.10;99.90;;;;;;5113340;28;20257;-51
2022/06/12 05:15:05;;;;;;;4.85;2.45;;;25.50;99.90;;;;;;5112546;28;20687;-51
2022/06/12 05:17:33;;;;;;;4.75;2.53;;;25.80;99.90;;;;;;5112885;28;20207;-52
2022/06/12 05:20:01;;;;;;;5.38;2.60;;;26.00;99.90;;;;;;5112970;28;20199;-51
2022/06/12 05:22:29;;;;;;;5.78;2.80;;;26.00;99.90;;;;;;5109675;28;20207;-52
2022/06/12 05:24:58;;;;;;;5.32;2.78;;;26.30;99.90;;;;;;5112857;28;20271;-51
2022/06/12 05:27:26;;;;;;;6.75;2.90;;;26.50;99.90;;;;;;5117731;28;20962;-51
2022/06/12 05:29:54;;;;;;;5.35;2.38;;;26.80;99.90;;;;;;5119808;28;20207;-51
2022/06/12 05:32:23;;;;;;;5.80;3.17;;;26.90;99.90;;;;;;5117236;28;20207;-51
2022/06/12 05:34:51;;;;;;;5.55;3.10;;;26.90;99.90;;;;;;5113204;28;20704;-52
2022/06/12 05:37:19;;;;;;;7.00;3.13;;;27.00;99.90;;;;;;5106440;28;20289;-51
2022/06/12 05:39:48;;;;;;;6.22;3.25;;;27.20;99.90;;;;;;5111802;28;20255;-51
2022/06/12 05:42:18;;;;;;;4.40;2.63;;;27.50;99.90;;;;;;5112061;28;20672;-51
2022/06/12 05:44:46;;;;;;;4.53;2.90;;;27.70;99.90;;;;;;5112365;28;20203;-52
2022/06/12 05:47:14;;;;;;;6.78;3.33;;;27.70;99.90;;;;;;5108074;28;20246;-52
2022/06/12 05:49:42;;;;;;;7.68;3.92;;;28.00;99.90;;;;;;5111853;28;20292;-52
2022/06/12 05:52:10;;;;;;;6.53;3.78;;;28.30;99.90;;;;;;5111796;28;20272;-51
2022/06/12 05:54:38;;;;;;;8.05;3.50;;;28.60;99.90;;;;;;5110909;28;20208;-52
2022/06/12 05:57:07;;;;;;;5.75;3.40;;;28.30;99.90;;;;;;5112697;28;20659;-52
2022/06/12 05:59:37;;;;;;;6.65;3.30;;;28.20;99.90;;;;;;5101260;28;20269;-52
2022/06/12 06:02:06;;;;;;;8.27;3.67;;;28.40;99.90;;;;;;5112016;28;20237;-52
2022/06/12 06:04:35;;;;;;;6.55;3.03;;;28.40;99.90;;;;;;5111860;28;20199;-52
2022/06/12 06:07:03;;;;;;;6.03;3.22;;;28.90;99.90;;;;;;5112105;28;20652;-52
2022/06/12 06:09:31;;;;;;;6.75;3.33;;;29.20;99.90;;;;;;5111278;28;20253;-51
2022/06/12 06:11:59;;;;;;;7.28;3.40;;;29.20;99.90;;;;;;5111466;28;20247;-52
2022/06/12 06:14:27;;;;;;;10.35;3.67;;;29.40;99.90;;;;;;5112062;28;20211;-52
2022/06/12 06:16:57;;;;;;;7.65;3.38;;;29.50;99.90;;;;;;5111278;28;20269;-52
2022/06/12 06:19:25;;;;;;;9.75;3.58;;;29.80;99.90;;;;;;5112176;28;20276;-52
2022/06/12 06:21:53;;;;;;;6.68;3.05;;;29.60;99.90;;;;;;5108992;28;20238;-53
2022/06/12 06:24:21;;;;;;;8.60;3.70;;;29.40;99.90;;;;;;5111624;28;20256;-52
2022/06/12 06:26:50;;;;;;;9.18;3.60;;;28.60;99.90;;;;;;5110970;28;20254;-52
2022/06/12 06:29:18;;;;;;;6.78;3.55;;;28.60;99.90;;;;;;5110992;28;20231;-52
2022/06/12 06:31:46;;;;;;;7.82;3.38;;;29.00;99.90;;;;;;5110374;28;20272;-52
2022/06/12 06:34:15;;;;;;;6.85;3.45;;;29.30;99.90;;;;;;5111489;28;20745;-51
2022/06/12 06:36:43;;;;;;;6.95;3.25;;;29.60;99.90;;;;;;5105842;28;21054;-53
2022/06/12 06:39:25;;;;;;;8.93;3.42;;;30.00;99.90;;;;;;5087137;28;20743;-51
2022/06/12 06:41:53;;;;;;;7.68;3.53;;;29.90;99.90;;;;;;5088281;28;20235;-52
2022/06/12 06:47:07;;;;;;;9.55;3.55;;;29.50;99.90;;;;;;5108251;28;20228;-52
2022/06/12 06:49:37;;;;;;;7.32;3.65;;;29.40;99.90;;;;;;5101688;28;20890;-52
2022/06/12 06:52:06;;;;;;;10.10;3.80;;;29.70;99.90;;;;;;5110981;28;20200;-53
2022/06/12 06:54:35;;;;;;;6.78;3.30;;;30.10;99.90;;;;;;5110642;28;20626;-52
2022/06/12 06:57:05;;;;;;;7.25;3.47;;;30.00;98.20;;;;;;5110819;28;20699;-53
2022/06/12 06:59:33;;;;;;;8.10;3.47;;;30.10;98.40;;;;;;5108532;28;20727;-52
2022/06/12 07:02:01;;;;;;;7.15;3.42;;;30.60;97.50;;;;;;5110052;28;20637;-52
2022/06/12 07:04:30;;;;;;;6.32;3.30;;;30.50;96.70;;;;;;5109047;28;20703;-52
2022/06/12 07:06:59;;;;;;;6.55;3.38;;;30.60;97.70;;;;;;5089822;28;20281;-52
2022/06/12 07:09:27;;;;;;;8.38;3.80;;;30.80;96.90;;;;;;5099066;28;20560;-52
2022/06/12 07:11:55;;;;;;;11.23;3.85;;;30.80;96.60;;;;;;5104078;28;20253;-52
2022/06/12 07:14:25;;;;;;;7.93;3.50;;;30.50;96.30;;;;;;5110678;28;20230;-52
2022/06/12 07:16:53;;;;;;;7.00;3.10;;;30.50;96.00;;;;;;5110559;28;20254;-52
2022/06/12 07:19:21;;;;;;;8.77;3.00;;;30.80;95.90;;;;;;5110383;28;20284;-52
2022/06/12 07:21:49;;;;;;;9.45;3.00;;;30.80;95.10;;;;;;5110058;28;20260;-52
2022/06/12 07:24:20;;;;;;;7.20;3.00;;;30.80;94.20;;;;;;5109411;28;20230;-52
2022/06/12 07:26:49;;;;;;;6.30;3.00;;;30.80;95.00;;;;;;5110167;28;20718;-52
2022/06/12 07:29:20;;;;;;;10.75;3.33;;;30.80;95.10;;;;;;5109169;28;20199;-52
2022/06/12 07:31:49;;;;;;;8.48;3.10;;;31.00;94.50;;;;;;5109394;28;20199;-52
2022/06/12 07:34:18;;;;;;;5.80;3.13;;;31.00;92.80;;;;;;5110434;28;20207;-52
2022/06/12 07:36:49;;;;;;;7.97;3.40;;;30.80;93.70;;;;;;5108936;28;20911;-52
2022/06/12 07:39:23;;;;;;;6.80;3.17;;;30.60;93.40;;;;;;5110033;28;20259;-53
2022/06/12 07:41:53;;;;;;;7.22;3.50;;;31.00;92.60;;;;;;5109612;28;20678;-51
2022/06/12 07:44:23;;;;;;;8.05;3.35;;;30.90;92.90;;;;;;5109977;28;20619;-52
2022/06/12 07:46:54;;;;;;;6.53;3.03;;;30.60;93.40;;;;;;5108565;28;20276;-52
2022/06/12 07:49:22;;;;;;;6.07;2.85;;;30.10;94.20;;;;;;5092570;28;20215;-52
2022/06/12 07:51:52;;;;;;;8.38;3.25;;;29.80;94.30;;;;;;5109821;28;20550;-52
2022/06/12 07:54:22;;;;;;;9.60;3.35;;;29.40;95.50;;;;;;5109824;28;20290;-52
2022/06/12 07:56:51;;;;;;;6.32;3.42;;;28.90;96.00;;;;;;5109564;28;20580;-52
2022/06/12 07:59:21;;;;;;;7.45;3.35;;;29.30;96.40;;;;;;5098666;28;20259;-52
2022/06/12 08:01:49;;;;;;;5.55;3.10;;;29.80;97.60;;;;;;5109549;28;20601;-52
2022/06/12 08:04:18;;;;;;;8.77;3.30;;;29.60;96.10;;;;;;5109394;28;20257;-52
2022/06/12 08:06:46;;;;;;;6.32;2.80;;;29.60;95.50;;;;;;5100056;28;20223;-52
2022/06/12 08:09:14;;;;;;;5.00;2.60;;;28.80;96.10;;;;;;5109831;28;20288;-52
2022/06/12 08:11:46;;;;;;;5.82;2.90;;;28.20;96.50;;;;;;5108408;28;20246;-52
2022/06/12 08:14:16;;;;;;;4.45;2.70;;;27.90;97.40;;;;;;5104660;28;20228;-51
2022/06/12 08:16:45;;;;;;;6.30;2.90;;;27.60;98.20;;;;;;5107226;28;20220;-51
2022/06/12 08:22:04;;;;;;;7.97;3.15;;;27.20;98.50;;;;;;5062211;28;20236;-52
2022/06/12 08:24:33;;;;;;;5.43;2.60;;;26.80;98.70;;;;;;5092299;28;20203;-51
2022/06/12 08:27:03;;;;;;;7.97;2.70;;;26.70;98.90;;;;;;5109433;28;20227;-52
2022/06/12 08:29:31;;;;;;;6.68;2.72;;;26.50;98.10;;;;;;5109165;28;20199;-52
2022/06/12 08:32:05;;;;;;;8.43;3.20;;;26.60;98.00;;;;;;5109042;28;20211;-51
2022/06/12 08:34:36;;;;;;;5.85;2.83;;;26.30;98.30;;;;;;5108205;28;20212;-51
2022/06/12 08:37:11;;;;;;;7.47;2.97;;;26.10;98.50;;;;;;5109345;28;20285;-52
2022/06/12 08:39:39;;;;;;;4.15;2.47;;;26.50;99.30;;;;;;5108326;28;20226;-52
2022/06/12 08:42:13;;;;;;;6.43;2.83;;;26.80;99.10;;;;;;5106371;28;20657;-52
2022/06/12 08:44:49;;;;;;;9.45;2.90;;;27.10;98.10;;;;;;5094567;28;20235;-51
2022/06/12 08:47:25;;;;;;;5.40;2.60;;;26.80;97.90;;;;;;5104814;28;20227;-52
2022/06/12 08:49:59;;;;;;;7.70;2.72;;;26.40;98.60;;;;;;5082790;28;20191;-51
2022/06/12 08:52:33;;;;;;;8.18;2.83;;;26.40;98.10;;;;;;5103551;28;20229;-51
2022/06/12 08:55:12;;;;;;;6.68;2.92;;;26.50;98.80;;;;;;5109258;28;20239;-52
2022/06/12 08:57:49;;;;;;;5.45;2.38;;;26.70;99.60;;;;;;5109178;28;20260;-51
2022/06/12 09:00:21;;;;;;;5.75;2.65;;;26.30;98.60;;;;;;5100479;28;20262;-51
2022/06/12 09:02:50;;;;;;;5.80;2.90;;;26.40;98.30;;;;;;5113042;28;20237;-51
2022/06/12 09:05:21;;;;;;;8.77;3.08;;;26.10;97.80;;;;;;5111789;28;20687;-51
2022/06/12 09:07:55;;;;;;;9.15;2.72;;;26.00;98.40;;;;;;5105837;28;20232;-51
2022/06/12 09:10:31;;;;;;;4.43;2.67;;;25.60;97.50;;;;;;5109649;28;20200;-51
2022/06/12 09:13:09;;;;;;;4.75;2.55;;;25.70;98.30;;;;;;5095836;28;20199;-52
2022/06/12 09:15:43;;;;;;;6.50;2.78;;;26.10;96.70;;;;;;5113039;28;20272;-52
2022/06/12 09:18:22;;;;;;;4.53;2.22;;;26.40;97.10;;;;;;5101055;28;20204;-52
2022/06/12 09:21:03;;;;;;;4.95;2.42;;;26.50;97.70;;;;;;5112877;28;20263;-52
2022/06/12 09:23:38;;;;;;;4.75;2.60;;;26.60;97.80;;;;;;5111348;28;20215;-52
2022/06/12 09:26:17;;;;;;;6.70;2.60;;;26.70;96.90;;;;;;5111882;28;20231;-51
2022/06/12 09:28:53;;;;;;;4.32;2.30;;;26.80;97.40;;;;;;5111581;28;20874;-51
2022/06/12 09:31:30;;;;;;;6.43;2.78;;;26.50;97.30;;;;;;5112448;28;20206;-51
2022/06/12 09:34:08;;;;;;;4.85;2.58;;;26.50;97.20;;;;;;5111831;28;20250;-52
2022/06/12 09:36:53;;;;;;;4.55;2.50;;;26.60;97.70;;;;;;5111674;28;20731;-51
2022/06/12 09:39:36;;;;;;;7.82;2.78;;;26.80;98.40;;;;;;5112045;28;20204;-51
2022/06/12 09:42:14;;;;;;;5.78;2.47;;;26.90;96.40;;;;;;5111835;28;20284;-52
2022/06/12 09:44:51;;;;;;;4.97;2.53;;;27.00;95.80;;;;;;5098066;28;20234;-52
2022/06/12 09:47:30;;;;;;;4.07;2.40;;;27.00;96.70;;;;;;5106949;28;20821;-51
2022/06/12 09:50:18;;;;;;;6.93;2.55;;;26.80;96.50;;;;;;5089725;28;20673;-52
2022/06/12 09:53:12;;;;;;;3.03;1.95;;;26.80;96.90;;;;;;5107613;28;20904;-51
2022/06/12 09:55:47;;;;;;;3.80;2.10;;;26.80;93.70;;;;;;5111505;28;20219;-51
2022/06/12 09:58:20;;;;;;;5.97;2.42;;;26.70;93.90;;;;;;5110706;28;20279;-51
2022/06/12 10:00:54;;;;;;;3.58;2.10;;;26.70;95.00;;;;;;5104336;28;20692;-51
2022/06/12 10:03:26;;;;;;;3.67;1.80;;;26.60;94.60;;;;;;5111386;28;20200;-51
2022/06/12 10:05:59;;;;;;;3.85;2.00;;;26.70;95.90;;;;;;5112276;28;20231;-51
2022/06/12 10:08:33;;;;;;;4.57;1.80;;;26.70;94.50;;;;;;5111313;28;20311;-51
2022/06/12 10:11:06;;;;;;;7.55;2.50;;;26.60;94.30;;;;;;5112533;28;20199;-51
2022/06/12 10:13:40;;;;;;;5.78;2.30;;;26.30;95.30;;;;;;5111820;28;20207;-51
2022/06/12 10:16:15;;;;;;;2.78;1.90;;;26.30;94.50;;;;;;5112671;28;20255;-51
2022/06/12 10:18:50;;;;;;;5.15;2.17;;;26.40;94.80;;;;;;5111497;28;20564;-51
2022/06/12 10:21:22;;;;;;;3.40;1.75;;;26.30;94.40;;;;;;5110124;28;20258;-52
2022/06/12 10:23:50;;;;;;;3.85;1.98;;;26.40;94.30;;;;;;5076392;28;20235;-52
2022/06/12 10:26:21;;;;;;;3.15;1.83;;;26.60;94.30;;;;;;5103960;28;20223;-51
2022/06/12 10:29:02;;;;;;;4.05;2.08;;;26.70;92.70;;;;;;5104538;28;20208;-52
2022/06/12 10:31:34;;;;;;;2.95;1.83;;;26.80;93.20;;;;;;5085835;28;20254;-52
2022/06/12 10:34:15;;;;;;;2.97;1.85;;;26.70;91.10;;;;;;5083533;28;20211;-51
2022/06/12 10:36:44;;;;;;;2.97;1.63;;;26.80;91.40;;;;;;5110600;28;20231;-51
2022/06/12 10:39:17;;;;;;;2.70;1.48;;;26.80;92.70;;;;;;5111197;28;20679;-51
2022/06/12 10:41:50;;;;;;;3.33;1.65;;;26.70;91.20;;;;;;5110850;28;20280;-52
2022/06/12 10:44:37;;;;;;;3.70;1.70;;;26.70;92.00;;;;;;5111349;28;20208;-52
2022/06/12 10:47:20;;;;;;;3.85;1.80;;;26.80;91.10;;;;;;5105354;28;20304;-51
2022/06/12 10:49:50;;;;;;;2.20;1.60;;;26.70;91.70;;;;;;5083353;28;20838;-51
2022/06/12 10:52:21;;;;;;;2.58;1.70;;;26.60;90.10;;;;;;5110564;28;20211;-52
2022/06/12 10:54:51;;;;;;;3.33;1.73;;;26.70;91.10;;;;;;5103823;28;20236;-51
2022/06/12 10:57:40;;;;;;;2.97;1.70;;;26.80;92.00;;;;;;5101705;28;20232;-51
2022/06/12 11:00:14;;;;;;;4.38;1.90;;;26.80;91.60;;;;;;5092987;28;20204;-51
2022/06/12 11:03:07;;;;;;;4.22;2.20;;;26.50;90.50;;;;;;5105084;28;20272;-51
2022/06/12 11:05:58;;;;;;;3.45;1.80;;;26.60;91.40;;;;;;5110977;28;20236;-52
2022/06/12 11:09:00;;;;;;;5.03;2.10;;;26.80;91.40;;;;;;5110507;28;20662;-52
2022/06/12 11:11:48;;;;;;;3.05;1.70;;;26.80;90.70;;;;;;5095931;28;20199;-51
2022/06/12 11:14:29;;;;;;;3.38;1.48;;;26.80;87.00;;;;;;5111057;28;20235;-51
2022/06/12 11:17:08;;;;;;;3.35;2.10;;;26.70;85.70;;;;;;5110426;28;20226;-51
2022/06/12 11:19:51;;;;;;;2.05;1.60;;;26.70;90.40;;;;;;5110856;28;20203;-51
2022/06/12 11:22:34;;;;;;;2.85;1.60;;;26.70;88.50;;;;;;5105100;28;20245;-51
2022/06/12 11:25:14;;;;;;;3.70;1.92;;;26.80;87.30;;;;;;5110264;28;20207;-51
2022/06/12 11:27:56;;;;;;;2.65;1.70;;;26.70;83.40;;;;;;5110541;28;20199;-51
2022/06/12 11:30:37;;;;;;;5.07;2.05;;;26.70;87.40;;;;;;5108355;28;20259;-51
2022/06/12 11:33:18;;;;;;;4.03;1.95;;;26.80;89.80;;;;;;5109842;28;20235;-52
2022/06/12 11:35:55;;;;;;;2.67;1.75;;;26.80;87.70;;;;;;5110498;28;20231;-51
2022/06/12 11:38:48;;;;;;;2.70;2.00;;;26.80;89.60;;;;;;5109828;28;20235;-51
2022/06/12 11:41:28;;;;;;;2.60;1.88;;;26.80;85.80;;;;;;5110167;28;20265;-51
2022/06/12 11:44:06;;;;;;;4.63;1.95;;;26.70;83.80;;;;;;5109414;28;20755;-51
2022/06/12 11:46:44;;;;;;;3.45;1.92;;;26.70;88.70;;;;;;5110115;28;20319;-51
2022/06/12 11:49:26;;;;;;;2.00;1.80;;;26.70;88.60;;;;;;5100558;28;20276;-51
2022/06/12 11:52:10;;;;;;;3.00;1.83;;;26.80;87.60;;;;;;5110353;28;20579;-51
2022/06/12 11:54:54;;;;;;;3.70;1.80;;;26.90;88.80;;;;;;5109072;28;20239;-52
2022/06/12 11:57:28;;;;;;;3.75;1.85;;;26.90;85.70;;;;;;5110406;28;20223;-51
2022/06/12 12:00:08;;;;;;;3.75;1.95;;;26.90;87.90;;;;;;5099252;28;20261;-51
2022/06/12 12:02:55;;;;;;;1.92;1.60;;;26.90;87.90;;;;;;5109178;28;20259;-51
2022/06/12 12:05:46;;;;;;;3.17;2.00;;;26.80;85.80;;;;;;5103784;28;20231;-51
2022/06/12 12:08:33;;;;;;;2.58;1.88;;;26.80;86.00;;;;;;5105727;28;20208;-51
2022/06/12 12:11:06;;;;;;;2.53;1.83;;;26.70;85.50;;;;;;5109307;28;20671;-51
2022/06/12 12:13:42;;;;;;;6.28;2.65;;;26.60;82.10;;;;;;5110082;28;20264;-50
2022/06/12 12:16:22;;;;;;;3.33;1.73;;;26.50;82.50;;;;;;5109924;28;20762;-51
2022/06/12 12:18:53;;;;;;;3.63;1.63;;;26.60;86.60;;;;;;5103104;28;20204;-52
2022/06/12 12:21:29;;;;;;;3.85;1.73;;;26.50;84.80;;;;;;5101156;28;20207;-53
2022/06/12 12:24:00;;;;;;;3.75;1.73;;;26.40;85.90;;;;;;5083135;28;20207;-52
2022/06/12 12:26:33;;;;;;;2.90;2.00;;;26.50;87.60;;;;;;5109155;28;20833;-52
2022/06/12 12:29:04;;;;;;;2.78;1.75;;;26.60;85.40;;;;;;5094501;28;20208;-51
2022/06/12 12:31:34;;;;;;;3.67;1.90;;;26.40;83.70;;;;;;5088676;28;20246;-52
2022/06/12 12:34:06;;;;;;;3.15;1.80;;;26.30;83.60;;;;;;5080524;28;20669;-52
2022/06/12 12:42:28;;;;;;;3.15;1.80;;;26.60;86.80;;;;;;5089447;28;20275;-52
2022/06/12 12:44:56;;;;;;;3.85;1.88;;;26.70;83.80;;;;;;5086657;28;20243;-52
2022/06/12 12:47:27;;;;;;;2.65;1.92;;;26.80;86.30;;;;;;5088263;28;21036;-52
2022/06/12 12:50:04;;;;;;;3.83;1.70;;;26.80;89.20;;;;;;5091562;28;20212;-51
2022/06/12 12:52:42;;;;;;;3.38;1.70;;;26.80;86.30;;;;;;5089283;28;20711;-52
2022/06/12 12:55:22;;;;;;;3.47;1.70;;;26.80;84.40;;;;;;5090085;28;20204;-52
2022/06/12 12:57:51;;;;;;;2.88;1.70;;;26.80;83.40;;;;;;5092730;28;20661;-52
2022/06/12 13:00:34;;;;;;;3.03;1.88;;;26.70;83.50;;;;;;5092754;28;20335;-52
2022/06/12 13:03:09;;;;;;;1.92;1.55;;;26.50;77.70;;;;;;5091311;28;20219;-51
2022/06/12 13:06:05;;;;;;;2.78;1.75;;;26.50;84.50;;;;;;5092621;28;20219;-52
2022/06/12 13:08:52;;;;;;;2.50;1.70;;;26.60;82.70;;;;;;5092332;28;20204;-51
2022/06/12 13:11:33;;;;;;;2.60;1.45;;;26.60;84.50;;;;;;5093121;28;20579;-52
2022/06/12 13:14:24;;;;;;;3.55;1.55;;;26.60;84.00;;;;;;5092219;28;20265;-51
2022/06/12 13:17:16;;;;;;;3.45;1.63;;;26.60;82.00;;;;;;5092208;28;20319;-52
2022/06/12 13:20:10;;;;;;;3.97;1.67;;;26.60;84.50;;;;;;5092107;28;20216;-52
2022/06/12 13:22:49;;;;;;;3.78;2.20;;;26.60;81.20;;;;;;5078524;28;20256;-52
2022/06/12 13:25:20;;;;;;;3.17;1.63;;;26.60;85.90;;;;;;5092374;28;20734;-52
2022/06/12 13:27:53;;;;;;;3.58;1.55;;;26.60;84.10;;;;;;5083838;28;20326;-52
2022/06/12 13:30:24;;;;;;;4.65;2.10;;;26.60;83.10;;;;;;5091689;28;20204;-52
2022/06/12 13:32:53;;;;;;;2.95;1.63;;;26.60;80.80;;;;;;5092211;28;20235;-52
2022/06/12 13:35:35;;;;;;;5.20;2.00;;;26.70;80.00;;;;;;5091535;28;20215;-52
2022/06/12 13:38:06;;;;;;;4.85;2.00;;;26.70;80.50;;;;;;5090997;28;20256;-51